aviador You're here:

YMAV Decoded Metar

AVALON in AUSTRALIA
Report Time2017-09-25 16:30:00
UTC Time2017-09-25 16:50:03
Flight Rules unknown UNKNOWN
Wind310° at 07 kt
W.Decomp.*RWY 36: 3.4 kt HW 6.1 kt LCW
W.Rank310° ranks 5
Current wind is below 310° avg. (8.7)
VisibilityN/A
Phenomena:N/A
Clouds:N/A
CeilingNone
Temp04°C (ISA -11)
Dew Point04°C (100% RH)
AAT0.2°C
QNH1016 hPa
Density Alt-1,293 ft
Elevation26 ft
Report Wrong Elevation
Raw Report
YMAV 251630Z AUTO 31007KT //// // ////// 04/04 Q1016 RF00.0/000.6
PRESENT WEATHER SENSOR US=

Extra information for YMAV:More info

Metar Taf Metar & Taf Last 4 Metars F.Rules Stats Wind Profile Meteogram Temp Stats Airport Information Weather charts Add Link Nearby VenuesMetar ALERT Operation Metar Decoded Social comments